KSLC/SLC METAR and TAF weather

Enter ICAO airport designator
Station Type Date Time Source
KSLC METAR 2019/10/23 06:54 UTC NOAA

KSLC 230654Z 33005KT 10SM FEW060 FEW090 12/01 A3021 RMK AO2 SLP206 T01170006 401720061 $


Station Type Date Time Source
KSLC Decoded METAR 2019/10/23 06:54 UTC NOAA

SALT LAKE CITY INTERNATIONAL AIRPORT , UT, United States (KSLC) 40-47N 111-58W 1286M
Oct 23, 2019 - 02:54 AM EDT / 2019.10.23 0654 UTC
Wind: from the NNW (330 degrees) at 6 MPH (5 KT):0
Visibility: 10 mile(s):0
Sky conditions: mostly clear
Temperature: 53.1 F (11.7 C)
Dew Point: 33.1 F (0.6 C)
Relative Humidity: 46%
Pressure (altimeter): 30.21 in. Hg (1023 hPa)
ob: KSLC 230654Z 33005KT 10SM FEW060 FEW090 12/01 A3021 RMK AO2 SLP206 T01170006 401720061
cycle: 7

Station Type Date Time Source
KSLC TAF 2019/10/23 06:33 UTC NOAA

TAF KSLC 230531Z 2306/2412 18004KT P6SM SCT080 SCT120
FM231600 32006KT P6SM SCT100 SCT120
FM232000 32012G22KT P6SM SCT100 SCT120
FM240100 33005KT P6SM SCT120
FM241000 15004KT P6SM SKC

Example: see airport list